Time;durP1;ratioP1;P1;durP2;ratioP2;P2;SDS_P1;SDS_P2;PMS_P1;PMS_P2;Temp;Humidity;BMP_temperature;BMP_pressure;BME280_temperature;BME280_humidity;BME280_pressure;Samples;Min_cycle;Max_cycle;Signal;HPM_P1;HPM_P2
2021/08/30 00:02:04;;;;;;;2.67;0.80;;;16.30;97.50;;;;;;4931708;28;20548;-70
2021/08/30 00:04:32;;;;;;;4.03;0.90;;;16.40;97.80;;;;;;4952937;29;20222;-74
2021/08/30 00:07:00;;;;;;;4.30;1.10;;;16.40;96.80;;;;;;4955255;28;20202;-76
2021/08/30 00:09:28;;;;;;;7.87;1.90;;;16.30;97.20;;;;;;4951085;28;20651;-70
2021/08/30 00:11:55;;;;;;;3.13;1.50;;;16.30;97.00;;;;;;4953717;28;20328;-71
2021/08/30 00:14:23;;;;;;;1.47;1.00;;;16.20;97.50;;;;;;4943512;28;20196;-70
2021/08/30 00:16:50;;;;;;;3.43;0.97;;;16.40;97.50;;;;;;4939264;28;20187;-70
2021/08/30 00:19:17;;;;;;;5.07;0.87;;;16.60;97.00;;;;;;4954108;28;20197;-76
2021/08/30 00:21:45;;;;;;;3.83;0.80;;;16.80;96.40;;;;;;4954871;28;20187;-70
2021/08/30 00:24:12;;;;;;;4.03;1.00;;;16.70;95.60;;;;;;4954029;28;20195;-69
2021/08/30 00:26:39;;;;;;;2.67;0.80;;;16.70;95.90;;;;;;4948962;28;20659;-70
2021/08/30 00:29:07;;;;;;;1.10;0.60;;;16.80;95.50;;;;;;4941878;28;20178;-71
2021/08/30 00:31:34;;;;;;;2.43;0.90;;;16.70;95.10;;;;;;4942200;28;20258;-73
2021/08/30 00:34:01;;;;;;;3.43;0.93;;;16.90;95.20;;;;;;4952971;28;20220;-70
2021/08/30 00:36:29;;;;;;;2.20;0.63;;;16.90;95.20;;;;;;4952772;28;20654;-72
2021/08/30 00:38:57;;;;;;;2.07;0.77;;;17.00;94.70;;;;;;4942129;29;20183;-71
2021/08/30 00:41:26;;;;;;;3.43;0.93;;;17.10;94.90;;;;;;4942356;29;20179;-72
2021/08/30 00:43:54;;;;;;;1.83;1.00;;;17.10;94.80;;;;;;4944802;29;20238;-71
2021/08/30 00:46:21;;;;;;;3.47;0.70;;;17.30;95.30;;;;;;4951952;28;20279;-70
2021/08/30 00:48:49;;;;;;;1.80;0.73;;;17.50;94.10;;;;;;4949912;28;20184;-67
2021/08/30 00:51:19;;;;;;;1.37;0.60;;;17.50;94.00;;;;;;4954356;29;20246;-67
2021/08/30 00:53:50;;;;;;;1.30;0.57;;;17.40;93.80;;;;;;4963739;28;20180;-71
2021/08/30 00:56:18;;;;;;;3.23;1.10;;;17.60;93.80;;;;;;4953139;28;20186;-71
2021/08/30 00:58:46;;;;;;;1.30;0.80;;;17.60;94.10;;;;;;4951129;28;20180;-70
2021/08/30 01:01:16;;;;;;;2.17;1.00;;;17.70;92.80;;;;;;4951038;28;20654;-68
2021/08/30 01:03:43;;;;;;;0.80;0.57;;;17.80;92.50;;;;;;4952363;28;20222;-69
2021/08/30 01:06:24;;;;;;;4.47;0.80;;;18.00;92.70;;;;;;4956471;28;20194;-70
2021/08/30 01:09:09;;;;;;;0.87;0.60;;;18.20;92.30;;;;;;4958657;28;20263;-73
2021/08/30 01:11:43;;;;;;;0.50;0.50;;;18.10;91.90;;;;;;4952933;28;20186;-70
2021/08/30 01:14:12;;;;;;;0.73;0.40;;;18.00;91.90;;;;;;4947638;28;20176;-69
2021/08/30 01:16:41;;;;;;;5.50;0.60;;;18.10;92.10;;;;;;4942902;28;20525;-68
2021/08/30 01:19:18;;;;;;;1.83;1.00;;;18.30;92.10;;;;;;4950993;28;20326;-69
2021/08/30 01:21:46;;;;;;;2.47;0.60;;;18.60;92.40;;;;;;4954296;29;20260;-70
2021/08/30 01:24:17;;;;;;;1.67;0.60;;;18.70;91.80;;;;;;4957669;28;20190;-69
2021/08/30 01:26:57;;;;;;;2.00;0.60;;;18.70;91.70;;;;;;4948521;28;20210;-70
2021/08/30 01:29:48;;;;;;;1.37;0.50;;;18.50;91.60;;;;;;4958340;29;20189;-72
2021/08/30 01:32:36;;;;;;;2.00;0.60;;;18.50;91.60;;;;;;4952261;28;20546;-71
2021/08/30 01:35:08;;;;;;;0.93;0.50;;;18.60;91.30;;;;;;4954886;28;20647;-70
2021/08/30 01:37:39;;;;;;;1.67;0.80;;;18.80;91.40;;;;;;4955032;28;20210;-71
2021/08/30 01:40:09;;;;;;;4.87;0.93;;;19.00;91.10;;;;;;4957278;28;20187;-71
2021/08/30 01:42:39;;;;;;;2.63;0.70;;;18.70;91.10;;;;;;4950643;28;20242;-71
2021/08/30 01:45:11;;;;;;;1.03;0.50;;;19.00;91.00;;;;;;4943449;28;20386;-71
2021/08/30 01:47:38;;;;;;;1.27;0.60;;;19.40;90.80;;;;;;4948830;28;20198;-71
2021/08/30 01:50:07;;;;;;;1.17;0.70;;;19.80;90.30;;;;;;4944148;28;20681;-77
2021/08/30 01:52:38;;;;;;;1.40;0.60;;;19.60;89.80;;;;;;4952814;28;20680;-71
2021/08/30 02:03:34;;;;;;;24.50;13.83;;;19.70;90.20;;;;;;4944422;28;20308;-69
2021/08/30 02:06:03;;;;;;;60.27;5.47;;;20.20;88.90;;;;;;4953903;28;20546;-69
2021/08/30 02:08:33;;;;;;;6.37;0.77;;;20.00;88.60;;;;;;4950906;28;20650;-70
2021/08/30 02:11:04;;;;;;;3.40;0.70;;;20.30;87.90;;;;;;4957310;28;20182;-70
2021/08/30 02:13:32;;;;;;;2.37;0.80;;;20.60;87.00;;;;;;4956317;28;20557;-72
2021/08/30 02:16:01;;;;;;;2.97;0.70;;;20.60;85.80;;;;;;4953960;28;20179;-65
2021/08/30 02:18:51;;;;;;;135.77;12.93;;;20.80;85.90;;;;;;4949790;28;20184;-67
2021/08/30 02:21:24;;;;;;;1.80;0.90;;;21.10;85.30;;;;;;4942142;28;20270;-72
2021/08/30 02:24:22;;;;;;;2.73;0.73;;;21.10;84.70;;;;;;4946175;28;20313;-70
2021/08/30 02:27:16;;;;;;;5.67;1.60;;;21.10;84.40;;;;;;4947223;28;20210;-75
2021/08/30 02:29:48;;;;;;;1.67;0.60;;;20.90;83.40;;;;;;4956518;28;20262;-73
2021/08/30 02:32:22;;;;;;;1.13;0.50;;;20.70;83.80;;;;;;4950875;28;20207;-73
2021/08/30 02:34:56;;;;;;;2.87;0.70;;;20.80;84.00;;;;;;4937444;28;20206;-69
2021/08/30 02:37:38;;;;;;;2.77;0.73;;;21.30;82.90;;;;;;4957517;28;20179;-71
2021/08/30 02:40:14;;;;;;;3.23;0.77;;;21.30;82.80;;;;;;4952181;28;20198;-75
2021/08/30 02:42:48;;;;;;;1.50;0.60;;;21.50;82.30;;;;;;4958719;28;21562;-75
2021/08/30 02:45:16;;;;;;;2.83;0.63;;;21.20;81.90;;;;;;4956314;28;20195;-71
2021/08/30 02:48:03;;;;;;;1.87;0.70;;;21.00;81.80;;;;;;4951621;28;20207;-60
2021/08/30 02:50:33;;;;;;;2.43;0.67;;;21.20;80.70;;;;;;4954013;28;20193;-73
2021/08/30 02:53:01;;;;;;;6.13;1.30;;;21.40;79.90;;;;;;4954111;28;20199;-73
2021/08/30 02:55:28;;;;;;;3.47;0.67;;;21.30;79.30;;;;;;4953740;28;20183;-70
2021/08/30 02:57:58;;;;;;;1.90;0.87;;;21.10;78.90;;;;;;4950675;28;20191;-68
2021/08/30 03:00:26;;;;;;;616.43;392.87;;;21.10;78.80;;;;;;4949258;28;20187;-71
2021/08/30 03:02:54;;;;;;;116.57;10.93;;;21.00;79.60;;;;;;4953915;28;20262;-72
2021/08/30 03:05:23;;;;;;;3.13;0.90;;;21.20;79.30;;;;;;4944021;28;20191;-78
2021/08/30 03:08:16;;;;;;;1.43;0.50;;;21.30;77.90;;;;;;4956185;28;20621;-79
2021/08/30 03:10:56;;;;;;;1.73;0.63;;;21.50;76.80;;;;;;4926706;28;20218;-79
2021/08/30 03:13:30;;;;;;;1.10;0.70;;;21.50;75.80;;;;;;4943837;28;20639;-76
2021/08/30 03:16:38;;;;;;;61.13;4.77;;;21.60;76.70;;;;;;4953070;28;20183;-74
2021/08/30 03:19:17;;;;;;;16.27;1.80;;;22.10;75.80;;;;;;4948179;28;20198;-73
2021/08/30 03:21:57;;;;;;;22.40;2.23;;;22.30;74.80;;;;;;4938515;28;20204;-73
2021/08/30 03:24:34;;;;;;;3.00;0.87;;;22.20;73.80;;;;;;4942566;28;20203;-76
2021/08/30 03:27:02;;;;;;;3.20;0.70;;;22.50;74.50;;;;;;4954434;28;20179;-71
2021/08/30 03:29:30;;;;;;;2.63;0.87;;;22.40;74.40;;;;;;4950754;28;20191;-70
2021/08/30 03:31:58;;;;;;;13.00;1.63;;;22.10;75.20;;;;;;4954943;28;20249;-72
2021/08/30 03:34:26;;;;;;;69.07;6.70;;;22.10;75.20;;;;;;4944217;28;20243;-70
2021/08/30 03:36:54;;;;;;;50.47;5.60;;;21.80;75.20;;;;;;4942104;28;20187;-71
2021/08/30 03:39:22;;;;;;;273.50;29.43;;;22.00;76.00;;;;;;4952356;28;20183;-71
2021/08/30 03:41:50;;;;;;;10.20;1.50;;;22.00;75.20;;;;;;4949897;28;20521;-70
2021/08/30 03:44:19;;;;;;;17.50;1.60;;;22.00;75.60;;;;;;4952253;28;20233;-72
2021/08/30 03:46:51;;;;;;;123.63;9.83;;;22.30;74.00;;;;;;4952914;28;20187;-70
2021/08/30 03:49:20;;;;;;;4.70;1.17;;;22.50;73.10;;;;;;4945690;28;20187;-70
2021/08/30 03:51:49;;;;;;;3.20;1.20;;;23.10;72.00;;;;;;4952297;28;20176;-70
2021/08/30 03:54:16;;;;;;;4.53;0.80;;;23.10;70.70;;;;;;4948682;28;20259;-67
2021/08/30 03:56:44;;;;;;;2.07;0.80;;;22.90;70.90;;;;;;4951779;28;20246;-71
2021/08/30 03:59:12;;;;;;;1.83;0.60;;;22.90;71.40;;;;;;4951328;28;20200;-69
2021/08/30 04:01:42;;;;;;;37.60;3.17;;;23.00;69.80;;;;;;4948063;28;20183;-74
2021/08/30 04:04:15;;;;;;;15.90;1.93;;;22.70;69.70;;;;;;4947159;28;20257;-72
2021/08/30 04:06:44;;;;;;;2.80;0.63;;;22.40;70.10;;;;;;4951569;28;20188;-70
2021/08/30 04:09:19;;;;;;;2.40;0.67;;;22.20;70.90;;;;;;4947804;28;20246;-72
2021/08/30 04:11:51;;;;;;;2.77;0.80;;;22.90;69.30;;;;;;4949337;28;20602;-71
2021/08/30 04:14:20;;;;;;;3.93;1.00;;;22.90;71.70;;;;;;4942361;28;20192;-70
2021/08/30 04:16:48;;;;;;;18.20;1.80;;;23.60;72.80;;;;;;4951336;28;20242;-70
2021/08/30 04:19:16;;;;;;;5.57;0.83;;;23.10;73.50;;;;;;4950656;28;20211;-72
2021/08/30 04:21:44;;;;;;;4.47;0.80;;;22.50;75.40;;;;;;4953490;28;20198;-69
2021/08/30 04:24:12;;;;;;;3.23;0.60;;;22.40;75.70;;;;;;4937462;28;20267;-72
2021/08/30 04:26:39;;;;;;;4.87;1.00;;;22.50;74.80;;;;;;4948037;28;20282;-71
2021/08/30 04:29:10;;;;;;;3.50;0.70;;;21.70;75.20;;;;;;4948908;28;20244;-81
2021/08/30 04:32:10;;;;;;;0.83;0.60;;;21.00;77.50;;;;;;4955743;28;20331;-73
2021/08/30 04:34:45;;;;;;;0.80;0.40;;;21.60;78.90;;;;;;4956905;28;20594;-77
2021/08/30 04:37:30;;;;;;;2.23;0.40;;;22.00;78.10;;;;;;4961613;28;20171;-80
2021/08/30 04:40:03;;;;;;;2.13;0.50;;;22.00;78.50;;;;;;4958101;29;20179;-78
2021/08/30 04:42:31;;;;;;;0.63;0.40;;;22.30;78.80;;;;;;4956336;28;20704;-73
2021/08/30 04:45:19;;;;;;;1.70;0.43;;;22.60;78.50;;;;;;4960027;28;20191;-69
2021/08/30 04:47:58;;;;;;;0.83;0.50;;;22.40;78.70;;;;;;4954274;28;20183;-79
2021/08/30 04:50:26;;;;;;;3.80;0.67;;;22.20;79.00;;;;;;4954243;28;20257;-78
2021/08/30 04:52:59;;;;;;;2.00;0.67;;;22.30;78.40;;;;;;4955805;28;20242;-79
2021/08/30 04:55:27;;;;;;;3.57;0.67;;;22.10;79.10;;;;;;4949288;28;20694;-72
2021/08/30 04:57:54;;;;;;;2.70;0.60;;;21.80;79.90;;;;;;4939178;29;20592;-72
2021/08/30 05:00:22;;;;;;;2.97;0.60;;;21.60;80.40;;;;;;4952830;28;20187;-70
2021/08/30 05:02:49;;;;;;;5.23;0.70;;;22.00;80.00;;;;;;4935589;28;20222;-71
2021/08/30 05:05:17;;;;;;;0.97;0.60;;;21.60;79.30;;;;;;4952815;28;20183;-72
2021/08/30 05:07:44;;;;;;;2.03;0.60;;;21.40;80.10;;;;;;4950717;28;20187;-70
2021/08/30 05:10:13;;;;;;;2.77;0.53;;;21.50;79.70;;;;;;4945315;28;20650;-70
2021/08/30 05:12:41;;;;;;;5.60;0.60;;;21.20;80.70;;;;;;4938646;29;20184;-70
2021/08/30 05:15:09;;;;;;;2.27;0.70;;;21.20;80.80;;;;;;4941092;29;20187;-70
2021/08/30 05:17:36;;;;;;;3.67;0.70;;;21.00;81.30;;;;;;4936918;28;20183;-66
2021/08/30 05:20:05;;;;;;;1.93;0.60;;;20.70;82.20;;;;;;4952494;29;20880;-69
2021/08/30 05:22:32;;;;;;;1.70;0.60;;;20.50;82.20;;;;;;4951890;28;20575;-69
2021/08/30 05:25:00;;;;;;;6.47;1.10;;;20.20;83.30;;;;;;4954220;28;20295;-60
2021/08/30 05:27:27;;;;;;;3.50;0.70;;;20.10;83.60;;;;;;4954939;28;20313;-66
2021/08/30 05:29:55;;;;;;;2.80;0.70;;;20.00;84.40;;;;;;4952588;28;20764;-70
2021/08/30 05:32:23;;;;;;;2.03;0.70;;;19.80;84.80;;;;;;4953159;28;20241;-69
2021/08/30 05:34:50;;;;;;;4.10;0.60;;;19.50;84.90;;;;;;4937796;29;20647;-72
2021/08/30 05:37:17;;;;;;;2.67;0.70;;;19.50;86.20;;;;;;4952194;28;20214;-68
2021/08/30 05:39:45;;;;;;;2.40;1.67;;;19.40;85.60;;;;;;4953657;28;20186;-69
2021/08/30 05:42:12;;;;;;;0.97;0.50;;;19.10;85.80;;;;;;4953131;28;20219;-70
2021/08/30 05:44:39;;;;;;;5.80;1.10;;;18.90;86.40;;;;;;4942413;28;20188;-72
2021/08/30 05:47:06;;;;;;;3.60;0.80;;;18.60;86.60;;;;;;4949474;28;20176;-71
2021/08/30 05:49:34;;;;;;;3.10;0.70;;;18.80;86.20;;;;;;4952194;28;20234;-67
2021/08/30 05:52:01;;;;;;;0.70;0.60;;;18.70;86.50;;;;;;4944898;28;20563;-65
2021/08/30 05:54:28;;;;;;;1.27;0.43;;;18.60;86.70;;;;;;4947535;28;20197;-66
2021/08/30 05:56:56;;;;;;;1.50;0.67;;;18.40;86.40;;;;;;4943055;28;20184;-68
2021/08/30 05:59:23;;;;;;;3.03;0.70;;;18.40;87.10;;;;;;4945668;28;20270;-69
2021/08/30 06:01:50;;;;;;;3.73;0.60;;;18.40;87.50;;;;;;4943352;28;20262;-73
2021/08/30 06:04:18;;;;;;;0.83;0.60;;;18.30;87.30;;;;;;4950203;28;20225;-67
2021/08/30 06:06:45;;;;;;;3.03;0.70;;;18.10;87.70;;;;;;4951565;28;20189;-71
2021/08/30 06:09:12;;;;;;;1.63;0.50;;;18.10;88.50;;;;;;4942662;28;20540;-66
2021/08/30 06:11:41;;;;;;;6.03;0.77;;;18.10;88.10;;;;;;4953779;28;20186;-69
2021/08/30 06:14:08;;;;;;;1.17;0.50;;;18.10;88.80;;;;;;4952768;28;20212;-70
2021/08/30 06:16:35;;;;;;;4.77;0.93;;;18.10;87.90;;;;;;4948645;28;20182;-71
2021/08/30 06:19:03;;;;;;;1.90;0.57;;;18.20;87.80;;;;;;4944319;28;20183;-72
2021/08/30 06:21:30;;;;;;;1.30;0.60;;;18.20;88.30;;;;;;4944518;28;20658;-71
2021/08/30 06:23:58;;;;;;;2.63;0.87;;;18.20;87.90;;;;;;4951855;28;20215;-70
2021/08/30 06:26:25;;;;;;;3.00;0.70;;;18.20;88.10;;;;;;4952750;28;20187;-72
2021/08/30 06:28:52;;;;;;;1.33;0.80;;;18.20;88.00;;;;;;4954588;28;20310;-72
2021/08/30 06:31:20;;;;;;;1.47;0.77;;;18.10;88.40;;;;;;4949671;28;20198;-71
2021/08/30 06:33:47;;;;;;;1.00;0.60;;;18.10;88.80;;;;;;4951705;28;20196;-71
2021/08/30 06:36:14;;;;;;;4.03;2.47;;;18.10;89.00;;;;;;4956677;28;20224;-71
2021/08/30 06:38:42;;;;;;;5.40;1.40;;;17.90;88.80;;;;;;4951770;28;20202;-70
2021/08/30 06:41:12;;;;;;;0.97;0.70;;;17.90;89.30;;;;;;4955870;28;20521;-70
2021/08/30 06:43:39;;;;;;;2.53;0.70;;;17.90;89.60;;;;;;4949228;28;20239;-71
2021/08/30 06:46:06;;;;;;;2.40;0.80;;;17.80;90.00;;;;;;4942018;29;20705;-69
2021/08/30 06:48:34;;;;;;;2.23;0.60;;;17.80;90.20;;;;;;4941347;28;20725;-67
2021/08/30 06:51:02;;;;;;;1.90;0.87;;;17.70;90.20;;;;;;4955717;28;20212;-69
2021/08/30 06:53:29;;;;;;;1.13;0.57;;;17.60;90.40;;;;;;4953106;28;20658;-70
2021/08/30 06:55:56;;;;;;;2.10;0.80;;;17.60;90.60;;;;;;4949530;28;20272;-66
2021/08/30 06:58:26;;;;;;;1.07;0.63;;;17.50;90.90;;;;;;4952975;28;20238;-62
2021/08/30 07:00:54;;;;;;;2.67;1.00;;;17.50;91.10;;;;;;4954191;28;20291;-70
2021/08/30 07:03:21;;;;;;;1.83;0.90;;;17.30;91.30;;;;;;4952265;29;20211;-70
2021/08/30 07:05:49;;;;;;;2.13;1.23;;;17.30;91.30;;;;;;4948127;28;20191;-68
2021/08/30 07:08:19;;;;;;;3.57;1.00;;;17.20;91.40;;;;;;4945631;28;20292;-70
2021/08/30 07:10:46;;;;;;;1.43;0.70;;;17.10;91.70;;;;;;4950215;28;20663;-64
2021/08/30 07:13:14;;;;;;;2.60;0.70;;;17.10;91.80;;;;;;4943645;28;20191;-63
2021/08/30 07:15:41;;;;;;;1.93;0.97;;;17.10;92.00;;;;;;4948094;28;20202;-72
2021/08/30 07:18:08;;;;;;;2.03;1.10;;;17.00;92.20;;;;;;4947798;28;20209;-68
2021/08/30 07:20:36;;;;;;;1.67;0.70;;;16.90;92.50;;;;;;4946032;28;20185;-67
2021/08/30 07:23:03;;;;;;;1.60;0.63;;;16.80;92.50;;;;;;4947925;28;20291;-65
2021/08/30 07:25:31;;;;;;;1.50;0.60;;;16.70;92.70;;;;;;4953011;28;20200;-72
2021/08/30 07:27:58;;;;;;;6.43;0.87;;;16.70;92.70;;;;;;4948474;28;20652;-65
2021/08/30 07:30:25;;;;;;;2.20;1.90;;;16.60;92.90;;;;;;4951849;28;20184;-65
2021/08/30 07:32:53;;;;;;;4.60;2.70;;;16.50;92.80;;;;;;4950506;28;20678;-70
2021/08/30 07:35:21;;;;;;;4.93;2.23;;;16.50;93.00;;;;;;4949755;28;20318;-72
2021/08/30 07:37:48;;;;;;;1.87;1.00;;;16.50;93.10;;;;;;4943833;28;20192;-62
2021/08/30 07:40:16;;;;;;;1.67;0.67;;;16.40;93.30;;;;;;4954858;28;20211;-66
2021/08/30 07:42:43;;;;;;;1.00;0.73;;;16.30;93.30;;;;;;4951919;28;20253;-67
2021/08/30 07:45:11;;;;;;;6.23;0.70;;;16.30;93.50;;;;;;4946146;28;20543;-67
2021/08/30 07:47:40;;;;;;;0.93;0.60;;;16.30;93.60;;;;;;4948687;28;20291;-66
2021/08/30 07:50:08;;;;;;;1.43;0.60;;;16.20;93.50;;;;;;4948874;28;20184;-62
2021/08/30 07:52:36;;;;;;;1.70;0.70;;;16.20;93.60;;;;;;4944859;28;20185;-72
2021/08/30 07:55:04;;;;;;;0.67;0.43;;;16.20;93.80;;;;;;4951688;28;20560;-70
2021/08/30 07:57:31;;;;;;;3.40;0.50;;;16.20;94.10;;;;;;4934283;29;20187;-72
2021/08/30 07:59:59;;;;;;;2.23;1.20;;;16.10;94.00;;;;;;4934738;29;20661;-71
2021/08/30 08:02:26;;;;;;;1.40;0.97;;;16.10;94.00;;;;;;4954082;28;20207;-73
2021/08/30 08:04:54;;;;;;;1.67;0.70;;;16.10;94.00;;;;;;4949492;28;20222;-73
2021/08/30 08:07:21;;;;;;;3.43;0.90;;;16.10;94.20;;;;;;4952685;28;20211;-66
2021/08/30 08:09:48;;;;;;;2.17;0.73;;;16.10;94.30;;;;;;4953594;28;20266;-72
2021/08/30 08:12:15;;;;;;;3.67;1.03;;;16.10;94.40;;;;;;4950782;28;20635;-67
2021/08/30 08:14:43;;;;;;;7.60;1.13;;;16.00;94.40;;;;;;4945362;28;20282;-73
2021/08/30 08:17:12;;;;;;;5.93;0.97;;;16.00;94.50;;;;;;4942750;28;20195;-70
2021/08/30 08:19:39;;;;;;;3.97;1.10;;;16.00;94.50;;;;;;4951410;28;20604;-66
2021/08/30 08:22:07;;;;;;;2.10;1.10;;;16.00;94.90;;;;;;4940128;28;20270;-65
2021/08/30 08:24:34;;;;;;;1.80;0.90;;;15.90;95.20;;;;;;4949602;28;20664;-64
2021/08/30 08:27:02;;;;;;;2.23;0.97;;;15.90;95.10;;;;;;4947181;28;20618;-64
2021/08/30 08:29:30;;;;;;;2.87;1.03;;;15.80;95.20;;;;;;4951467;29;20619;-71
2021/08/30 08:31:57;;;;;;;0.73;0.60;;;15.80;95.40;;;;;;4954082;28;20686;-67
2021/08/30 08:34:24;;;;;;;0.80;0.70;;;15.70;95.60;;;;;;4948787;28;20215;-69
2021/08/30 08:36:55;;;;;;;2.77;1.10;;;15.80;95.90;;;;;;4947944;29;20191;-68
2021/08/30 08:39:22;;;;;;;3.97;1.37;;;15.80;96.10;;;;;;4956389;28;20181;-70
2021/08/30 08:41:49;;;;;;;0.87;0.60;;;15.70;96.40;;;;;;4952399;28;20654;-69
2021/08/30 08:44:17;;;;;;;2.87;1.33;;;15.70;96.50;;;;;;4945729;28;20315;-71
2021/08/30 08:46:44;;;;;;;4.83;1.73;;;15.70;96.80;;;;;;4952458;28;20324;-67
2021/08/30 08:49:12;;;;;;;5.57;1.40;;;15.70;97.10;;;;;;4954168;28;20334;-68
2021/08/30 08:51:39;;;;;;;6.17;3.40;;;15.60;97.10;;;;;;4949981;28;20187;-63
2021/08/30 08:54:09;;;;;;;6.07;2.50;;;15.60;97.40;;;;;;4952849;28;20282;-65
2021/08/30 08:56:37;;;;;;;14.20;3.50;;;15.60;97.50;;;;;;4951885;28;20677;-71
2021/08/30 08:59:04;;;;;;;3.80;1.80;;;15.60;97.80;;;;;;4952281;28;20184;-72
2021/08/30 09:01:35;;;;;;;9.27;3.20;;;15.60;97.80;;;;;;4952686;28;20195;-63
2021/08/30 09:04:04;;;;;;;10.37;3.93;;;15.50;98.10;;;;;;4951472;29;20226;-71
2021/08/30 09:06:53;;;;;;;12.50;3.83;;;15.50;98.30;;;;;;4946338;28;20185;-72
2021/08/30 09:09:22;;;;;;;3.30;2.53;;;15.50;98.50;;;;;;4957911;28;20659;-72
2021/08/30 09:11:57;;;;;;;8.80;4.10;;;15.50;98.50;;;;;;4953085;28;20191;-72
2021/08/30 09:14:26;;;;;;;12.37;6.17;;;15.50;98.80;;;;;;4941823;29;20279;-72
2021/08/30 09:17:09;;;;;;;9.90;4.33;;;15.50;98.90;;;;;;4940956;28;20179;-70
2021/08/30 09:19:37;;;;;;;5.87;2.97;;;15.40;99.20;;;;;;4954654;29;20670;-70
2021/08/30 09:22:05;;;;;;;2.67;1.67;;;15.50;99.30;;;;;;4952405;28;20185;-72
2021/08/30 09:24:34;;;;;;;3.03;2.07;;;15.40;99.20;;;;;;4944805;28;20219;-71
2021/08/30 09:27:12;;;;;;;4.00;1.53;;;15.50;99.30;;;;;;4952117;28;20237;-71
2021/08/30 09:29:41;;;;;;;4.03;1.30;;;15.50;99.10;;;;;;4950316;28;20191;-74
2021/08/30 09:32:15;;;;;;;5.73;1.30;;;15.50;99.10;;;;;;4949999;29;20187;-68
2021/08/30 09:34:45;;;;;;;5.13;1.20;;;15.50;99.00;;;;;;4945047;28;20234;-71
2021/08/30 09:37:24;;;;;;;4.17;1.60;;;15.50;98.90;;;;;;4949939;28;20215;-72
2021/08/30 09:39:57;;;;;;;4.57;1.33;;;15.50;99.20;;;;;;4952918;28;20215;-67
2021/08/30 09:42:26;;;;;;;5.67;2.53;;;15.50;99.20;;;;;;4943261;28;20219;-64
2021/08/30 09:44:56;;;;;;;3.50;1.40;;;15.50;99.40;;;;;;4955186;28;20293;-68
2021/08/30 09:47:23;;;;;;;3.87;1.83;;;15.50;99.60;;;;;;4957722;28;20195;-71
2021/08/30 09:49:52;;;;;;;2.10;1.40;;;15.40;99.70;;;;;;4945075;28;20191;-70
2021/08/30 09:52:21;;;;;;;5.37;1.17;;;15.50;99.80;;;;;;4954821;28;20284;-68
2021/08/30 09:54:50;;;;;;;3.63;1.47;;;15.50;99.90;;;;;;4949616;28;20192;-69
2021/08/30 09:57:18;;;;;;;4.37;1.10;;;15.50;99.90;;;;;;4951667;28;20190;-61
2021/08/30 09:59:47;;;;;;;4.97;2.00;;;15.40;99.90;;;;;;4954258;28;20202;-67
2021/08/30 10:02:17;;;;;;;5.60;2.33;;;15.40;99.90;;;;;;4955639;28;20179;-69
2021/08/30 10:04:47;;;;;;;14.57;6.13;;;15.40;99.90;;;;;;4955028;29;20591;-69
2021/08/30 10:07:15;;;;;;;8.80;6.03;;;15.40;99.90;;;;;;4956330;28;20546;-69
2021/08/30 10:09:44;;;;;;;10.80;5.93;;;15.40;99.90;;;;;;4955726;29;20190;-66
2021/08/30 10:12:11;;;;;;;6.90;3.33;;;15.30;99.90;;;;;;4952977;29;20195;-66
2021/08/30 10:14:39;;;;;;;6.90;2.43;;;15.20;99.90;;;;;;4945747;29;20548;-67
2021/08/30 10:17:07;;;;;;;8.03;2.70;;;15.20;99.90;;;;;;4956071;28;20186;-66
2021/08/30 10:19:39;;;;;;;7.03;3.00;;;15.10;99.90;;;;;;4951330;29;20690;-67
2021/08/30 10:22:20;;;;;;;345.80;183.57;;;15.00;99.90;;;;;;4949252;29;20183;-67
2021/08/30 10:24:49;;;;;;;8.30;2.20;;;15.00;99.90;;;;;;4955899;28;20195;-67
2021/08/30 10:27:35;;;;;;;764.20;345.63;;;14.90;99.90;;;;;;4947429;28;20191;-67
2021/08/30 10:30:08;;;;;;;5.47;2.00;;;14.90;99.90;;;;;;4949808;29;20210;-67
2021/08/30 10:32:41;;;;;;;5.80;2.50;;;14.80;99.90;;;;;;4951909;29;20194;-66
2021/08/30 10:35:24;;;;;;;4.83;2.70;;;14.90;99.90;;;;;;4957127;29;20191;-68
2021/08/30 10:38:00;;;;;;;8.27;2.90;;;14.90;99.90;;;;;;4956893;28;20187;-68
2021/08/30 10:40:33;;;;;;;4.13;1.70;;;14.80;99.90;;;;;;4944610;29;20183;-66
2021/08/30 10:43:05;;;;;;;5.17;2.57;;;14.80;99.90;;;;;;4942941;29;20237;-67
2021/08/30 10:45:39;;;;;;;706.90;342.40;;;14.70;99.90;;;;;;4948817;28;20578;-67
2021/08/30 10:48:09;;;;;;;4.33;2.00;;;14.70;99.90;;;;;;4956999;29;20187;-67
2021/08/30 10:50:49;;;;;;;3.97;2.37;;;14.70;99.90;;;;;;4954787;28;20238;-67
2021/08/30 10:53:23;;;;;;;7.33;2.27;;;14.70;99.90;;;;;;4955082;29;20282;-66
2021/08/30 10:56:02;;;;;;;6.73;2.30;;;14.70;99.90;;;;;;4951696;28;20267;-67
2021/08/30 10:58:29;;;;;;;5.37;2.27;;;14.60;99.90;;;;;;4954978;29;20191;-66
2021/08/30 11:00:57;;;;;;;5.17;1.97;;;14.70;99.90;;;;;;4949941;29;20182;-67
2021/08/30 11:03:33;;;;;;;7.37;1.83;;;14.60;99.90;;;;;;4957004;29;20216;-66
2021/08/30 11:06:10;;;;;;;2.97;1.60;;;14.60;99.90;;;;;;4955933;28;20583;-66
2021/08/30 11:08:40;;;;;;;5.00;1.97;;;14.60;99.90;;;;;;4951954;29;20282;-65
2021/08/30 11:11:11;;;;;;;7.43;1.93;;;14.60;99.90;;;;;;4947836;29;20190;-65
2021/08/30 11:13:40;;;;;;;7.30;2.37;;;14.60;99.90;;;;;;4956366;28;20187;-66
2021/08/30 11:16:26;;;;;;;24.20;5.70;;;14.50;99.90;;;;;;4948390;29;20262;-66
2021/08/30 11:19:03;;;;;;;7.73;3.20;;;14.50;99.90;;;;;;4947899;29;20285;-66
2021/08/30 11:21:52;;;;;;;12.23;3.07;;;14.50;99.90;;;;;;4941795;29;20220;-67
2021/08/30 11:24:40;;;;;;;8.23;2.97;;;14.40;99.90;;;;;;4944872;28;20222;-66
2021/08/30 11:27:10;;;;;;;9.47;3.20;;;14.40;99.90;;;;;;4952062;29;20175;-66
2021/08/30 11:29:46;;;;;;;8.00;3.27;;;14.40;99.90;;;;;;4942964;28;20215;-67
2021/08/30 11:32:15;;;;;;;9.47;4.43;;;14.40;99.90;;;;;;4941950;29;20193;-66
2021/08/30 11:34:43;;;;;;;6.43;3.63;;;14.30;99.90;;;;;;4955205;29;20186;-67
2021/08/30 11:37:13;;;;;;;7.63;4.20;;;14.30;99.90;;;;;;4949649;29;20187;-67
2021/08/30 11:39:46;;;;;;;5.27;3.30;;;14.30;99.90;;;;;;4949370;29;20658;-67
2021/08/30 11:42:22;;;;;;;5.87;3.73;;;14.30;99.90;;;;;;4955391;28;20315;-66
2021/08/30 11:44:50;;;;;;;6.80;3.43;;;14.30;99.90;;;;;;4955473;29;20179;-68
2021/08/30 11:47:20;;;;;;;6.93;2.77;;;14.30;99.90;;;;;;4952693;28;20183;-68
2021/08/30 11:49:53;;;;;;;757.27;336.87;;;14.20;99.90;;;;;;4955807;29;20293;-68
2021/08/30 11:52:23;;;;;;;746.33;326.53;;;14.30;99.90;;;;;;4951919;29;20650;-67
2021/08/30 11:54:58;;;;;;;755.97;329.30;;;14.20;99.90;;;;;;4949796;28;20529;-68
2021/08/30 11:57:36;;;;;;;772.27;343.67;;;14.20;99.90;;;;;;4953850;29;20194;-68
2021/08/30 12:00:06;;;;;;;761.60;331.63;;;14.20;99.90;;;;;;4949558;28;20215;-68
2021/08/30 12:02:38;;;;;;;747.93;324.27;;;14.20;99.90;;;;;;4951333;29;20202;-68
2021/08/30 12:05:07;;;;;;;756.10;321.97;;;14.20;99.90;;;;;;4954434;29;20191;-67
2021/08/30 12:07:36;;;;;;;756.87;327.53;;;14.20;99.90;;;;;;4946677;29;20709;-68
2021/08/30 12:10:09;;;;;;;751.33;319.87;;;14.10;99.90;;;;;;4949189;28;20206;-68
2021/08/30 12:12:51;;;;;;;722.70;295.63;;;14.10;99.90;;;;;;4946488;29;20227;-68
2021/08/30 12:15:21;;;;;;;719.23;284.80;;;14.10;99.90;;;;;;4953064;28;20418;-68
2021/08/30 12:17:55;;;;;;;705.87;272.37;;;14.00;99.90;;;;;;4954579;29;20925;-68
2021/08/30 12:20:26;;;;;;;718.33;283.80;;;14.00;99.90;;;;;;4955255;28;20459;-68
2021/08/30 12:22:56;;;;;;;713.50;278.77;;;14.00;99.90;;;;;;4949643;29;20463;-68
2021/08/30 12:25:25;;;;;;;724.47;284.00;;;14.00;99.90;;;;;;4946943;28;20439;-68
2021/08/30 12:27:54;;;;;;;673.00;268.40;;;14.00;99.90;;;;;;4949038;28;20446;-68
2021/08/30 12:30:27;;;;;;;678.77;269.03;;;13.90;99.90;;;;;;4945349;28;20436;-68
2021/08/30 12:33:01;;;;;;;686.33;270.37;;;13.90;99.90;;;;;;4952184;28;20499;-68
2021/08/30 12:35:38;;;;;;;689.30;278.20;;;13.90;99.90;;;;;;4954544;29;20434;-68
2021/08/30 12:38:12;;;;;;;695.27;275.97;;;13.80;99.90;;;;;;4945799;29;20427;-68
2021/08/30 12:40:45;;;;;;;694.40;277.97;;;13.80;99.90;;;;;;4962860;28;20482;-68
2021/08/30 12:43:12;;;;;;;703.13;288.83;;;13.80;99.90;;;;;;4947688;28;20985;-67
2021/08/30 12:45:40;;;;;;;701.30;286.87;;;13.80;99.90;;;;;;4954500;29;20429;-67
2021/08/30 12:48:07;;;;;;;698.20;281.23;;;13.80;99.90;;;;;;4954867;29;20427;-67
2021/08/30 12:50:36;;;;;;;707.63;298.03;;;13.70;99.90;;;;;;4941290;29;20446;-67
2021/08/30 12:53:05;;;;;;;699.00;285.03;;;13.70;99.90;;;;;;4954567;28;20417;-67
2021/08/30 12:55:34;;;;;;;712.17;306.60;;;13.70;99.90;;;;;;4953002;28;20425;-62
2021/08/30 12:58:02;;;;;;;709.73;291.63;;;13.70;99.90;;;;;;4954012;29;20439;-69
2021/08/30 13:00:30;;;;;;;728.30;327.07;;;13.60;99.90;;;;;;4951631;29;20505;-61
2021/08/30 13:02:58;;;;;;;740.00;329.17;;;13.50;99.90;;;;;;4953869;29;20901;-65
2021/08/30 13:05:28;;;;;;;722.00;289.00;;;13.50;99.90;;;;;;4939429;29;20792;-70
2021/08/30 13:07:56;;;;;;;725.33;316.07;;;13.40;99.90;;;;;;4939946;29;20425;-71